sensor_id;sensor_type;location;lat;lon;timestamp;pressure;altitude;pressure_sealevel;temperature;humidity
62864;BME280;48954;59.950;11.014;2023-04-06T10:32:58;100531.64;;;0.60;69.77
62864;BME280;48954;59.950;11.014;2023-04-06T10:35:38;100530.66;;;0.59;69.89
62864;BME280;48954;59.950;11.014;2023-04-06T10:38:34;100528.71;;;0.59;69.76
62864;BME280;48954;59.950;11.014;2023-04-06T10:41:19;100528.23;;;0.59;69.92
62864;BME280;48954;59.950;11.014;2023-04-06T10:44:22;100530.18;;;0.59;70.10
62864;BME280;48954;59.950;11.014;2023-04-06T10:47:16;100529.64;;;0.58;70.01
62864;BME280;48954;59.950;11.014;2023-04-06T10:49:49;100528.39;;;0.59;70.16
62864;BME280;48954;59.950;11.014;2023-04-06T10:52:23;100533.91;;;0.61;70.47
62864;BME280;48954;59.950;11.014;2023-04-06T10:55:03;100526.87;;;0.64;70.68
62864;BME280;48954;59.950;11.014;2023-04-06T10:57:47;100530.85;;;0.66;70.46
62864;BME280;48954;59.950;11.014;2023-04-06T11:00:48;100523.70;;;0.65;70.59
62864;BME280;48954;59.950;11.014;2023-04-06T11:03:22;100527.88;;;0.67;70.43
62864;BME280;48954;59.950;11.014;2023-04-06T11:05:52;100526.84;;;0.67;70.76
62864;BME280;48954;59.950;11.014;2023-04-06T11:11:28;100529.29;;;0.66;70.65
62864;BME280;48954;59.950;11.014;2023-04-06T11:13:58;100532.64;;;0.66;71.09
62864;BME280;48954;59.950;11.014;2023-04-06T11:19:46;100529.83;;;0.72;70.79
62864;BME280;48954;59.950;11.014;2023-04-06T11:23:21;100524.79;;;0.76;70.85
62864;BME280;48954;59.950;11.014;2023-04-06T11:30:06;100517.02;;;0.79;70.91
62864;BME280;48954;59.950;11.014;2023-04-06T11:33:10;100518.85;;;0.80;70.56
62864;BME280;48954;59.950;11.014;2023-04-06T11:35:37;100523.23;;;0.81;70.87
62864;BME280;48954;59.950;11.014;2023-04-06T11:38:31;100522.09;;;0.82;70.63
62864;BME280;48954;59.950;11.014;2023-04-06T11:41:03;100517.23;;;0.80;70.61
62864;BME280;48954;59.950;11.014;2023-04-06T11:51:59;100521.71;;;0.95;70.96
62864;BME280;48954;59.950;11.014;2023-04-06T11:54:41;100518.40;;;1.01;70.71
62864;BME280;48954;59.950;11.014;2023-04-06T11:57:25;100520.11;;;1.05;70.65
62864;BME280;48954;59.950;11.014;2023-04-06T11:59:54;100520.58;;;1.11;70.48
62864;BME280;48954;59.950;11.014;2023-04-06T12:02:39;100517.70;;;1.13;70.89
62864;BME280;48954;59.950;11.014;2023-04-06T12:05:21;100516.13;;;1.13;70.29
62864;BME280;48954;59.950;11.014;2023-04-06T12:08:07;100517.60;;;1.09;70.23
62864;BME280;48954;59.950;11.014;2023-04-06T12:11:11;100517.72;;;1.06;70.35
62864;BME280;48954;59.950;11.014;2023-04-06T12:14:36;100516.15;;;1.04;70.27
62864;BME280;48954;59.950;11.014;2023-04-06T12:17:40;100519.44;;;1.01;70.22
62864;BME280;48954;59.950;11.014;2023-04-06T12:20:20;100520.52;;;0.97;70.37
62864;BME280;48954;59.950;11.014;2023-04-06T12:23:02;100521.40;;;0.96;70.27
62864;BME280;48954;59.950;11.014;2023-04-06T12:25:32;100520.04;;;0.96;70.43
62864;BME280;48954;59.950;11.014;2023-04-06T13:33:12;100513.52;;;1.28;71.75
62864;BME280;48954;59.950;11.014;2023-04-06T13:35:52;100514.60;;;1.26;71.68
62864;BME280;48954;59.950;11.014;2023-04-06T13:38:48;100514.02;;;1.24;71.72
62864;BME280;48954;59.950;11.014;2023-04-06T13:41:55;100512.98;;;1.23;71.72
62864;BME280;48954;59.950;11.014;2023-04-06T13:44:49;100516.52;;;1.23;71.57
62864;BME280;48954;59.950;11.014;2023-04-06T13:47:59;100511.46;;;1.24;71.73
62864;BME280;48954;59.950;11.014;2023-04-06T13:51:21;100507.33;;;1.28;71.65
62864;BME280;48954;59.950;11.014;2023-04-06T13:54:45;100504.50;;;1.27;71.97
62864;BME280;48954;59.950;11.014;2023-04-06T13:57:36;100506.54;;;1.31;72.08
62864;BME280;48954;59.950;11.014;2023-04-06T14:00:24;100495.45;;;1.37;72.38
62864;BME280;48954;59.950;11.014;2023-04-06T14:03:42;100495.27;;;1.48;72.07
62864;BME280;48954;59.950;11.014;2023-04-06T14:06:55;100498.15;;;1.56;72.26
62864;BME280;48954;59.950;11.014;2023-04-06T14:09:56;100498.66;;;1.59;72.39
62864;BME280;48954;59.950;11.014;2023-04-06T14:12:43;100500.24;;;1.59;71.93
62864;BME280;48954;59.950;11.014;2023-04-06T14:15:15;100499.12;;;1.57;72.17
62864;BME280;48954;59.950;11.014;2023-04-06T14:18:01;100492.61;;;1.56;71.98
62864;BME280;48954;59.950;11.014;2023-04-06T15:36:34;100490.70;;;1.76;73.50
62864;BME280;48954;59.950;11.014;2023-04-06T15:39:34;100488.08;;;1.76;73.31
62864;BME280;48954;59.950;11.014;2023-04-06T15:42:06;100488.18;;;1.77;73.39
62864;BME280;48954;59.950;11.014;2023-04-06T15:48:09;100485.95;;;1.84;73.87
62864;BME280;48954;59.950;11.014;2023-04-06T17:22:43;100494.60;;;1.26;75.68
62864;BME280;48954;59.950;11.014;2023-04-06T17:25:44;100496.34;;;1.25;75.79
62864;BME280;48954;59.950;11.014;2023-04-06T22:35:03;100684.30;;;0.33;79.96
62864;BME280;48954;59.950;11.014;2023-04-06T22:38:08;100685.70;;;0.31;80.11
62864;BME280;48954;59.950;11.014;2023-04-06T22:41:11;100681.59;;;0.30;80.02
62864;BME280;48954;59.950;11.014;2023-04-06T22:43:51;100679.96;;;0.30;80.08
62864;BME280;48954;59.950;11.014;2023-04-06T22:46:57;100684.83;;;0.30;79.93
62864;BME280;48954;59.950;11.014;2023-04-06T22:56:09;100684.67;;;0.30;80.02
62864;BME280;48954;59.950;11.014;2023-04-06T22:58:59;100684.02;;;0.29;80.13
62864;BME280;48954;59.950;11.014;2023-04-06T23:01:39;100691.81;;;0.28;80.13
62864;BME280;48954;59.950;11.014;2023-04-06T23:04:07;100693.33;;;0.27;80.17
62864;BME280;48954;59.950;11.014;2023-04-06T23:06:34;100696.46;;;0.27;80.11
62864;BME280;48954;59.950;11.014;2023-04-06T23:09:01;100693.02;;;0.26;80.18
62864;BME280;48954;59.950;11.014;2023-04-06T23:11:30;100696.85;;;0.25;80.12
62864;BME280;48954;59.950;11.014;2023-04-06T23:13:57;100698.80;;;0.25;80.44
62864;BME280;48954;59.950;11.014;2023-04-06T23:16:24;100701.78;;;0.24;80.44
62864;BME280;48954;59.950;11.014;2023-04-06T23:18:56;100695.17;;;0.25;80.38
62864;BME280;48954;59.950;11.014;2023-04-06T23:21:36;100697.71;;;0.26;80.18
62864;BME280;48954;59.950;11.014;2023-04-06T23:24:05;100700.69;;;0.26;80.46
62864;BME280;48954;59.950;11.014;2023-04-06T23:26:52;100703.81;;;0.27;80.56
62864;BME280;48954;59.950;11.014;2023-04-06T23:29:33;100704.80;;;0.29;80.44
62864;BME280;48954;59.950;11.014;2023-04-06T23:32:13;100706.80;;;0.29;80.37
62864;BME280;48954;59.950;11.014;2023-04-06T23:34:49;100709.56;;;0.29;80.42
62864;BME280;48954;59.950;11.014;2023-04-06T23:37:17;100707.23;;;0.28;80.42
62864;BME280;48954;59.950;11.014;2023-04-06T23:39:59;100708.64;;;0.27;80.49
62864;BME280;48954;59.950;11.014;2023-04-06T23:42:27;100712.42;;;0.28;80.64
62864;BME280;48954;59.950;11.014;2023-04-06T23:45:08;100714.60;;;0.29;80.59
62864;BME280;48954;59.950;11.014;2023-04-06T23:47:48;100712.42;;;0.28;80.61
62864;BME280;48954;59.950;11.014;2023-04-06T23:50:29;100713.52;;;0.27;80.56
62864;BME280;48954;59.950;11.014;2023-04-06T23:53:11;100718.38;;;0.28;80.53
62864;BME280;48954;59.950;11.014;2023-04-06T23:55:40;100721.20;;;0.29;80.50
62864;BME280;48954;59.950;11.014;2023-04-06T23:58:07;100717.85;;;0.29;80.82
